Terminal Aerodrome Forecast
Issued by NWS Houston/Galveston, TX

Home | Current Version | Previous Version | Text Only | Print | Product List | Glossary On
Versions: 1 2 3 4 5 6 7 8 9 10 11 12 13 14 15 16 17 18 19 20 21 22 23 24 25 26 27 28 29 30 31 32 33 34 35 36 37 38 39 40 41 42 43 44
538
FTUS44 KHGX 110806 AAB
TAFGLS
TAF AMD
KGLS 110806Z 1108/1206 14013KT P6SM SCT035 BKN050 OVC080
     FM111400 15012KT P6SM BKN020 OVC030
     FM111700 16015KT P6SM BKN025
     FM120000 16015KT 4SM BR OVC015=

USA.gov is the U.S. government's official web portal to all federal, state and local government web resources and services.